Time;durP1;ratioP1;P1;durP2;ratioP2;P2;SDS_P1;SDS_P2;PMS_P1;PMS_P2;Temp;Humidity;BMP_temperature;BMP_pressure;BME280_temperature;BME280_humidity;BME280_pressure;Samples;Min_cycle;Max_cycle;Signal;HPM_P1;HPM_P2
2023/09/17 00:02:21;;;;;;;13.20;11.90;;;;;;;17.37;95.65;101281.00;6225109;22;20041;-65
2023/09/17 00:04:47;;;;;;;13.65;12.23;;;;;;;17.27;96.56;101283.13;6277847;22;20060;-65
2023/09/17 00:07:13;;;;;;;12.45;11.25;;;;;;;17.17;97.08;101281.66;6227698;22;20436;-64
2023/09/17 00:09:38;;;;;;;12.88;11.68;;;;;;;17.10;96.40;101279.22;6253080;22;20263;-65
2023/09/17 00:12:04;;;;;;;12.57;11.27;;;;;;;17.01;97.13;101282.16;6252900;22;20047;-65
2023/09/17 00:14:30;;;;;;;12.82;11.38;;;;;;;16.91;97.67;101271.00;6252685;22;20425;-65
2023/09/17 00:16:55;;;;;;;13.15;11.88;;;;;;;16.83;97.81;101272.97;6278588;22;20007;-66
2023/09/17 00:19:21;;;;;;;12.90;11.68;;;;;;;16.81;97.40;101272.16;6252696;22;20014;-66
2023/09/17 00:21:46;;;;;;;12.57;11.35;;;;;;;16.74;96.93;101263.53;6227132;22;20007;-65
2023/09/17 00:24:12;;;;;;;12.68;11.38;;;;;;;16.71;97.68;101257.50;6227815;22;20041;-67
2023/09/17 00:26:38;;;;;;;11.70;10.60;;;;;;;16.70;96.01;101250.47;6278579;22;20011;-67
2023/09/17 00:29:04;;;;;;;12.32;11.10;;;;;;;16.59;97.54;101242.84;6278019;22;20413;-68
2023/09/17 00:31:29;;;;;;;12.25;11.05;;;;;;;16.52;97.12;101236.00;6227757;22;20065;-67
2023/09/17 00:33:55;;;;;;;11.95;10.75;;;;;;;16.49;97.04;101236.94;6227313;22;20003;-67
2023/09/17 00:36:21;;;;;;;12.25;11.15;;;;;;;16.52;96.71;101241.28;6278617;22;20084;-67
2023/09/17 00:38:46;;;;;;;11.13;10.02;;;;;;;16.47;96.14;101233.50;6278126;22;20007;-69
2023/09/17 00:41:12;;;;;;;11.85;10.60;;;;;;;16.42;96.73;101236.28;6253143;22;20018;-68
2023/09/17 00:43:38;;;;;;;11.90;10.85;;;;;;;16.41;97.11;101234.53;6277391;22;20098;-68
2023/09/17 00:46:04;;;;;;;11.38;10.25;;;;;;;16.36;97.20;101239.09;6252675;22;20437;-69
2023/09/17 00:48:31;;;;;;;11.85;10.68;;;;;;;16.36;97.11;101230.31;6277703;22;20336;-69
2023/09/17 00:50:57;;;;;;;12.18;10.95;;;;;;;16.35;97.00;101231.22;6278630;22;20065;-69
2023/09/17 00:53:24;;;;;;;11.82;10.60;;;;;;;16.33;97.04;101236.53;6277953;22;20011;-69
2023/09/17 00:55:51;;;;;;;12.20;10.98;;;;;;;16.34;96.55;101255.94;6278293;22;20487;-67
2023/09/17 00:58:16;;;;;;;12.23;11.10;;;;;;;16.35;97.20;101255.00;6252569;22;20072;-67
2023/09/17 01:00:43;;;;;;;12.60;11.40;;;;;;;16.34;97.64;101254.16;6252441;22;20024;-67
2023/09/17 01:03:09;;;;;;;12.43;11.23;;;;;;;16.36;98.60;101260.25;6227311;22;20010;-67
2023/09/17 01:05:44;;;;;;;13.48;12.05;;;;;;;16.33;100.00;101270.06;6227215;22;20018;-65
2023/09/17 01:08:10;;;;;;;13.40;12.10;;;;;;;16.20;100.00;101278.34;6278522;22;20010;-66
2023/09/17 01:10:40;;;;;;;13.00;11.80;;;;;;;16.13;100.00;101305.84;6252611;22;20425;-66
2023/09/17 01:13:06;;;;;;;;;;;;;;;16.28;100.00;101309.88;6278256;22;20007;-66
2023/09/17 01:15:34;;;;;;;13.90;12.50;;;;;;;15.99;100.00;101300.09;6278182;22;19903;-67
2023/09/17 01:18:05;;;;;;;13.82;12.52;;;;;;;15.94;100.00;101279.06;6252494;22;20007;-67
2023/09/17 01:20:34;;;;;;;15.60;13.38;;;;;;;15.94;100.00;101252.63;6228369;22;20026;-66
2023/09/17 01:23:10;;;;;;;14.80;13.25;;;;;;;15.91;100.00;101252.72;6278341;22;20038;-67
2023/09/17 01:25:57;;;;;;;14.10;12.63;;;;;;;15.91;100.00;101253.59;6277810;22;20098;-70
2023/09/17 01:28:23;;;;;;;13.45;12.25;;;;;;;15.78;100.00;101246.88;6276840;22;20094;-70
2023/09/17 01:30:48;;;;;;;14.15;12.82;;;;;;;15.69;100.00;101258.56;6252619;22;20444;-70
2023/09/17 01:33:14;;;;;;;14.63;13.30;;;;;;;15.62;100.00;101248.22;6227201;22;20012;-70
2023/09/17 01:35:53;;;;;;;15.65;14.05;;;;;;;15.54;100.00;101253.66;6278472;22;20007;-70
2023/09/17 01:38:21;;;;;;;16.92;15.13;;;;;;;15.46;100.00;101253.00;6278437;22;20013;-70
2023/09/17 01:40:48;;;;;;;16.75;15.07;;;;;;;15.36;100.00;101241.81;6278805;22;20007;-70
2023/09/17 01:43:18;;;;;;;17.10;15.45;;;;;;;15.30;100.00;101237.56;6251967;22;20088;-70
2023/09/17 01:45:44;;;;;;;18.63;16.73;;;;;;;15.29;100.00;101234.97;6278035;22;20021;-70
2023/09/17 01:48:10;;;;;;;19.02;17.23;;;;;;;15.20;100.00;101229.00;6252330;22;20386;-70
2023/09/17 01:50:36;;;;;;;20.08;18.05;;;;;;;15.22;100.00;101231.59;6278519;22;20003;-70
2023/09/17 01:53:03;;;;;;;21.33;19.27;;;;;;;15.21;100.00;101233.38;6254564;22;20010;-69
2023/09/17 01:55:29;;;;;;;19.70;17.90;;;;;;;15.15;100.00;101222.94;6280475;22;20031;-69
2023/09/17 01:57:55;;;;;;;19.85;18.05;;;;;;;15.15;100.00;101222.09;6254128;22;20007;-70
2023/09/17 02:00:20;;;;;;;21.38;19.27;;;;;;;15.11;100.00;101231.00;6279948;22;20025;-70
2023/09/17 02:02:47;;;;;;;21.15;19.20;;;;;;;15.09;100.00;101233.66;6227958;22;20007;-69
2023/09/17 02:05:17;;;;;;;21.35;19.45;;;;;;;15.09;100.00;101238.09;6254200;22;20025;-69
2023/09/17 02:07:43;;;;;;;22.30;20.10;;;;;;;15.00;100.00;101247.09;6254122;22;20463;-69
2023/09/17 02:10:09;;;;;;;23.42;21.23;;;;;;;14.99;100.00;101233.03;6254677;22;20010;-69
2023/09/17 02:12:34;;;;;;;23.75;21.33;;;;;;;14.96;100.00;101237.53;6279181;22;19999;-70
2023/09/17 02:15:00;;;;;;;25.23;22.58;;;;;;;14.94;100.00;101239.31;6254574;22;20015;-71
2023/09/17 02:17:25;;;;;;;24.65;22.08;;;;;;;14.97;100.00;101240.13;6253428;22;20011;-70
2023/09/17 02:19:51;;;;;;;24.60;22.10;;;;;;;14.98;100.00;101238.34;6254418;22;20086;-70
2023/09/17 02:22:16;;;;;;;24.02;21.73;;;;;;;14.94;100.00;101236.66;6228519;22;20004;-70
2023/09/17 02:24:42;;;;;;;23.42;21.27;;;;;;;14.94;100.00;101232.28;6253923;22;20011;-70
2023/09/17 02:27:08;;;;;;;24.80;22.50;;;;;;;14.91;100.00;101216.50;6253891;22;20432;-70
2023/09/17 02:29:34;;;;;;;23.30;21.20;;;;;;;14.88;100.00;101206.91;6229310;22;20011;-71
2023/09/17 02:31:59;;;;;;;25.02;22.42;;;;;;;14.86;100.00;101208.69;6253974;22;20060;-69
2023/09/17 02:34:25;;;;;;;22.42;20.33;;;;;;;14.85;100.00;101204.31;6228655;22;20188;-70
2023/09/17 02:36:51;;;;;;;23.52;21.30;;;;;;;14.83;100.00;101197.38;6253608;22;20294;-70
2023/09/17 02:39:17;;;;;;;23.33;21.13;;;;;;;14.78;100.00;101194.81;6254376;22;20026;-70
2023/09/17 02:41:42;;;;;;;22.08;20.02;;;;;;;14.80;100.00;101192.16;6228515;22;20015;-70
2023/09/17 02:44:07;;;;;;;23.13;21.05;;;;;;;14.78;100.00;101183.41;6227965;22;20425;-70
2023/09/17 02:46:34;;;;;;;23.92;21.75;;;;;;;14.76;100.00;101188.72;6254454;22;20498;-70
2023/09/17 02:49:00;;;;;;;23.42;21.27;;;;;;;14.75;100.00;101176.41;6278839;22;20068;-70
2023/09/17 02:51:27;;;;;;;24.00;21.48;;;;;;;14.72;100.00;101173.84;6254422;22;20437;-70
2023/09/17 02:53:52;;;;;;;22.02;20.00;;;;;;;14.67;100.00;101170.47;6278754;22;20003;-70
2023/09/17 02:56:18;;;;;;;24.38;22.10;;;;;;;14.64;100.00;101163.50;6253652;22;20341;-69
2023/09/17 02:58:44;;;;;;;23.10;20.80;;;;;;;14.66;100.00;101172.22;6252645;22;20102;-70
2023/09/17 03:01:17;;;;;;;22.98;20.92;;;;;;;14.64;100.00;101160.88;6279558;22;20033;-70
2023/09/17 03:03:43;;;;;;;22.50;20.50;;;;;;;14.61;100.00;101163.53;6279233;22;20015;-70
2023/09/17 03:06:10;;;;;;;23.27;21.17;;;;;;;14.63;100.00;101161.75;6279530;22;20014;-70
2023/09/17 03:08:41;;;;;;;22.80;20.90;;;;;;;14.62;100.00;101157.38;6228657;22;20031;-70
2023/09/17 03:11:13;;;;;;;23.02;20.90;;;;;;;14.51;100.00;101152.34;6254490;22;20003;-70
2023/09/17 03:13:44;;;;;;;22.42;20.20;;;;;;;14.55;100.00;101158.38;6229813;22;20007;-70
2023/09/17 03:16:15;;;;;;;21.63;19.63;;;;;;;14.45;100.00;101148.97;6279177;22;20003;-70
2023/09/17 03:18:42;;;;;;;22.73;20.63;;;;;;;14.40;100.00;101146.44;6278012;22;20007;-67
2023/09/17 03:21:08;;;;;;;21.67;19.73;;;;;;;14.36;100.00;101147.41;6254230;22;20091;-67
2023/09/17 03:23:33;;;;;;;23.02;21.02;;;;;;;14.32;100.00;101145.75;6279240;22;20030;-67
2023/09/17 03:26:01;;;;;;;22.48;20.35;;;;;;;14.30;100.00;101152.81;6278668;22;20027;-67
2023/09/17 03:28:27;;;;;;;23.02;21.05;;;;;;;14.25;100.00;101149.41;6277929;22;20003;-67
2023/09/17 03:30:55;;;;;;;24.88;22.48;;;;;;;14.25;100.00;101150.31;6228048;22;20389;-67
2023/09/17 03:33:23;;;;;;;25.45;23.20;;;;;;;14.19;100.00;101147.78;6253687;22;20003;-67
2023/09/17 03:35:49;;;;;;;26.38;23.90;;;;;;;14.20;100.00;101152.16;6253386;22;20314;-67
2023/09/17 03:38:15;;;;;;;26.67;24.10;;;;;;;14.19;100.00;101151.31;6253368;22;20068;-67
2023/09/17 03:40:40;;;;;;;27.35;24.80;;;;;;;14.21;100.00;101152.13;6306096;22;20041;-67
2023/09/17 03:43:06;;;;;;;29.77;26.77;;;;;;;14.21;100.00;101146.84;6278591;22;20109;-67
2023/09/17 03:45:32;;;;;;;29.48;26.90;;;;;;;14.26;100.00;101144.09;6279125;22;20011;-67
2023/09/17 03:47:58;;;;;;;30.15;27.17;;;;;;;14.25;100.00;101145.03;6278153;22;20006;-67
2023/09/17 03:50:24;;;;;;;31.88;29.08;;;;;;;14.28;100.00;101149.34;6279232;22;19999;-67
2023/09/17 03:52:53;;;;;;;31.27;28.38;;;;;;;14.31;100.00;101144.00;6252535;22;20038;-67
2023/09/17 03:55:20;;;;;;;31.75;28.92;;;;;;;14.31;100.00;101141.34;6278620;22;20003;-67
2023/09/17 03:57:46;;;;;;;32.28;29.30;;;;;;;14.34;100.00;101143.97;6252324;22;20007;-68
2023/09/17 04:00:13;;;;;;;32.45;29.55;;;;;;;14.35;100.00;101149.19;6247502;22;20020;-67
2023/09/17 04:02:39;;;;;;;34.30;31.02;;;;;;;14.41;100.00;101142.03;6245868;22;20007;-70
2023/09/17 04:05:12;;;;;;;35.00;31.70;;;;;;;14.44;100.00;101145.47;6273742;22;20054;-71
2023/09/17 04:07:40;;;;;;;35.30;32.15;;;;;;;14.46;100.00;101143.66;6248081;22;20008;-70
2023/09/17 04:10:06;;;;;;;34.90;31.63;;;;;;;14.49;100.00;101143.56;6248010;22;20008;-70
2023/09/17 04:12:33;;;;;;;34.28;30.98;;;;;;;14.56;100.00;101142.53;6222212;22;20012;-70
2023/09/17 04:14:58;;;;;;;34.70;31.58;;;;;;;14.61;100.00;101139.81;6247669;22;20087;-70
2023/09/17 04:17:24;;;;;;;36.03;32.72;;;;;;;14.66;100.00;101137.09;6222201;22;20011;-68
2023/09/17 04:19:52;;;;;;;37.45;34.10;;;;;;;14.66;100.00;101135.31;6247946;22;20061;-69
2023/09/17 04:22:18;;;;;;;39.20;35.58;;;;;;;14.72;100.00;101139.56;6247347;22;20010;-68
2023/09/17 04:24:46;;;;;;;38.95;35.17;;;;;;;14.78;100.00;101139.41;6222812;22;20015;-69
2023/09/17 04:27:11;;;;;;;39.45;35.35;;;;;;;14.83;100.00;101139.31;6247490;22;20049;-68
2023/09/17 04:29:37;;;;;;;40.00;36.15;;;;;;;14.84;100.00;101136.63;6248007;22;20452;-68
2023/09/17 04:32:03;;;;;;;39.70;36.03;;;;;;;14.87;100.00;101139.19;6247963;22;20093;-68
2023/09/17 04:34:29;;;;;;;41.42;37.65;;;;;;;14.91;100.00;101137.34;6221784;22;20011;-68
2023/09/17 04:36:58;;;;;;;42.70;38.55;;;;;;;14.96;100.00;101134.59;6245930;22;20023;-68
2023/09/17 04:39:24;;;;;;;40.63;36.80;;;;;;;15.01;100.00;101137.97;6220548;22;20086;-67
2023/09/17 04:41:50;;;;;;;42.70;38.53;;;;;;;15.05;100.00;101132.56;6245097;22;20011;-68
2023/09/17 04:44:16;;;;;;;41.50;37.67;;;;;;;15.10;100.00;101131.59;6272631;22;20391;-68
2023/09/17 04:46:46;;;;;;;41.88;37.60;;;;;;;15.12;100.00;101128.00;6221561;22;20007;-68
2023/09/17 04:49:12;;;;;;;41.40;37.40;;;;;;;15.19;100.00;101128.72;6222955;22;20094;-68
2023/09/17 04:51:37;;;;;;;40.22;36.30;;;;;;;15.23;100.00;101122.47;6247612;22;20031;-67
2023/09/17 04:54:04;;;;;;;40.92;37.08;;;;;;;15.27;100.00;101126.75;6247312;22;20006;-68
2023/09/17 04:56:30;;;;;;;41.42;37.60;;;;;;;15.33;100.00;101125.69;6273451;22;20102;-68
2023/09/17 04:58:59;;;;;;;40.33;36.53;;;;;;;15.37;100.00;101127.34;6246176;22;20012;-68
2023/09/17 05:01:27;;;;;;;38.38;34.70;;;;;;;15.46;100.00;101131.50;6247304;22;20008;-68
2023/09/17 05:03:53;;;;;;;38.78;35.25;;;;;;;15.47;100.00;101120.03;6246771;22;20011;-68
2023/09/17 05:06:18;;;;;;;38.78;35.25;;;;;;;15.52;100.00;101126.94;6222706;22;20033;-67
2023/09/17 05:08:44;;;;;;;38.97;35.30;;;;;;;15.54;100.00;101129.53;6221673;22;20490;-67
2023/09/17 05:11:09;;;;;;;38.17;34.65;;;;;;;15.58;100.00;101134.69;6246435;22;20086;-68
2023/09/17 05:13:35;;;;;;;36.78;33.35;;;;;;;15.62;100.00;101138.13;6221852;22;20014;-68
2023/09/17 05:16:00;;;;;;;36.58;33.30;;;;;;;15.66;100.00;101136.25;6222007;22;20091;-67
2023/09/17 05:18:26;;;;;;;36.58;33.28;;;;;;;15.68;100.00;101127.38;6196529;22;20007;-67
2023/09/17 05:20:53;;;;;;;36.95;33.47;;;;;;;15.74;100.00;101137.75;6196884;22;20425;-68
2023/09/17 05:23:19;;;;;;;37.20;33.70;;;;;;;15.77;100.00;101131.53;6246998;22;20437;-68
2023/09/17 05:25:45;;;;;;;35.05;32.00;;;;;;;15.80;100.00;101134.09;6221608;22;20039;-68
2023/09/17 05:28:11;;;;;;;34.33;30.85;;;;;;;15.80;100.00;101139.38;6221139;22;20012;-70
2023/09/17 05:30:37;;;;;;;33.83;30.75;;;;;;;15.82;100.00;101134.94;6222407;22;20007;-71
2023/09/17 05:33:06;;;;;;;33.85;30.75;;;;;;;15.84;100.00;101138.38;6221318;22;20012;-70
2023/09/17 05:35:37;;;;;;;34.60;31.38;;;;;;;15.91;100.00;101139.94;6248293;22;20034;-70
2023/09/17 05:38:03;;;;;;;34.75;31.52;;;;;;;15.95;100.00;101140.75;6222336;22;20073;-70
2023/09/17 05:40:29;;;;;;;35.25;31.95;;;;;;;15.97;100.00;101138.03;6222511;22;20011;-70
2023/09/17 05:42:56;;;;;;;36.00;32.67;;;;;;;15.99;100.00;101144.13;6220848;22;20011;-71
2023/09/17 05:45:21;;;;;;;38.05;34.22;;;;;;;16.00;100.00;101137.94;6247506;22;20014;-70
2023/09/17 05:47:47;;;;;;;37.30;33.80;;;;;;;16.02;100.00;101146.69;6220576;22;20003;-70
2023/09/17 05:50:12;;;;;;;36.83;33.33;;;;;;;16.05;100.00;101141.34;6222046;22;20082;-70
2023/09/17 05:52:38;;;;;;;39.03;35.22;;;;;;;16.10;100.00;101149.97;6221832;22;20338;-70
2023/09/17 05:55:04;;;;;;;40.28;36.40;;;;;;;16.11;100.00;101152.56;6221971;22;20376;-70
2023/09/17 05:57:33;;;;;;;38.92;35.30;;;;;;;16.13;100.00;101149.03;6221374;22;20015;-70
2023/09/17 05:59:59;;;;;;;40.70;36.65;;;;;;;16.16;100.00;101149.81;6264197;22;20336;-70
2023/09/17 06:02:25;;;;;;;39.92;35.95;;;;;;;16.18;100.00;101153.25;6276930;22;20011;-70
2023/09/17 06:04:53;;;;;;;38.67;35.08;;;;;;;16.22;100.00;101149.63;6305361;22;20008;-70
2023/09/17 06:07:22;;;;;;;39.65;35.83;;;;;;;16.27;100.00;101158.25;6252677;22;20114;-70
2023/09/17 06:09:47;;;;;;;40.35;36.00;;;;;;;16.28;100.00;101154.72;6252255;22;20015;-70
2023/09/17 06:12:13;;;;;;;39.15;35.42;;;;;;;16.32;100.00;101154.63;6274927;22;20075;-70
2023/09/17 06:14:39;;;;;;;40.20;36.28;;;;;;;16.33;100.00;101151.06;6252076;22;20061;-70
2023/09/17 06:17:05;;;;;;;39.83;35.83;;;;;;;16.39;100.00;101141.16;6252134;22;20015;-70
2023/09/17 06:19:33;;;;;;;39.05;35.13;;;;;;;16.40;100.00;101153.47;6251677;22;20380;-70
2023/09/17 06:21:58;;;;;;;39.60;35.70;;;;;;;16.44;100.00;101154.25;6277516;22;20412;-70
2023/09/17 06:24:24;;;;;;;38.88;34.97;;;;;;;16.43;100.00;101148.09;6226681;22;20034;-70
2023/09/17 06:26:49;;;;;;;35.50;32.17;;;;;;;16.46;100.00;101152.41;6251829;22;20045;-69
2023/09/17 06:29:15;;;;;;;36.08;32.78;;;;;;;16.48;100.00;101150.59;6226469;22;20007;-70
2023/09/17 06:31:42;;;;;;;36.25;32.58;;;;;;;16.50;100.00;101148.75;6227684;22;20060;-70
2023/09/17 06:34:09;;;;;;;36.42;33.15;;;;;;;16.51;100.00;101145.19;6225548;22;20010;-70
2023/09/17 06:36:35;;;;;;;37.88;34.47;;;;;;;16.53;100.00;101142.50;6227794;22;20022;-70
2023/09/17 06:39:01;;;;;;;39.05;35.22;;;;;;;16.54;100.00;101150.38;6253662;22;20015;-70
2023/09/17 06:41:26;;;;;;;36.50;32.83;;;;;;;16.55;100.00;101151.25;6254497;22;20003;-68
2023/09/17 06:43:51;;;;;;;40.00;36.20;;;;;;;16.55;100.00;101146.84;6252790;22;20014;-68
2023/09/17 06:46:17;;;;;;;39.28;35.13;;;;;;;16.58;100.00;101153.81;6253887;22;20090;-68
2023/09/17 06:48:44;;;;;;;37.28;33.67;;;;;;;16.60;100.00;101154.63;6253706;22;20014;-68
2023/09/17 06:51:09;;;;;;;37.35;33.70;;;;;;;16.61;100.00;101151.94;6228646;22;20344;-68
2023/09/17 06:53:35;;;;;;;37.55;33.85;;;;;;;16.66;100.00;101156.22;6253901;22;20041;-68
2023/09/17 06:56:00;;;;;;;37.75;33.95;;;;;;;16.69;100.00;101158.75;6278776;22;20011;-69
2023/09/17 06:58:26;;;;;;;37.35;33.63;;;;;;;16.70;100.00;101155.19;6225994;22;20003;-68
2023/09/17 07:00:53;;;;;;;37.20;33.25;;;;;;;16.69;100.00;101150.81;6228109;22;20019;-68
2023/09/17 07:03:18;;;;;;;38.28;34.63;;;;;;;16.71;100.00;101147.22;6227254;22;20091;-68
2023/09/17 07:05:44;;;;;;;38.20;34.17;;;;;;;16.74;100.00;101151.53;6253548;22;20039;-68
2023/09/17 07:08:09;;;;;;;37.13;33.45;;;;;;;16.75;100.00;101151.50;6227558;22;20016;-68
2023/09/17 07:10:34;;;;;;;37.42;33.55;;;;;;;16.73;100.00;101145.38;6254017;22;20102;-68
2023/09/17 07:13:00;;;;;;;37.95;34.08;;;;;;;16.76;100.00;101147.91;6227946;22;20102;-69
2023/09/17 07:15:26;;;;;;;37.50;33.80;;;;;;;16.76;100.00;101145.25;6227553;22;20094;-68
2023/09/17 07:17:54;;;;;;;37.38;33.50;;;;;;;16.76;100.00;101145.25;6251830;22;20011;-68
2023/09/17 07:20:19;;;;;;;38.35;33.97;;;;;;;16.79;100.00;101152.25;6278143;22;20387;-68
2023/09/17 07:22:48;;;;;;;37.35;33.70;;;;;;;16.79;100.00;101153.13;6251777;22;20083;-68
2023/09/17 07:25:14;;;;;;;37.17;33.63;;;;;;;16.79;100.00;101144.31;6253470;22;20018;-68
2023/09/17 07:27:40;;;;;;;38.78;34.97;;;;;;;16.78;100.00;101145.25;6252179;22;20464;-68
2023/09/17 07:30:08;;;;;;;37.55;33.80;;;;;;;16.77;100.00;101146.16;6277104;22;20009;-68
2023/09/17 07:32:33;;;;;;;38.65;34.75;;;;;;;16.78;100.00;101142.59;6253294;22;20017;-68
2023/09/17 07:35:02;;;;;;;39.03;34.83;;;;;;;16.76;100.00;101139.97;6279300;22;20015;-69
2023/09/17 07:37:28;;;;;;;38.53;34.70;;;;;;;16.77;100.00;101146.16;6278739;22;20100;-68
2023/09/17 07:39:58;;;;;;;39.03;35.25;;;;;;;16.77;100.00;101143.50;6306497;22;20010;-68
2023/09/17 07:42:23;;;;;;;41.75;37.63;;;;;;;16.79;100.00;101139.00;6278916;22;20027;-68
2023/09/17 07:44:48;;;;;;;39.60;35.60;;;;;;;16.76;100.00;101139.13;6278758;22;20349;-68
2023/09/17 07:47:14;;;;;;;40.65;36.72;;;;;;;16.82;100.00;101140.69;6278095;22;20007;-66
2023/09/17 07:49:39;;;;;;;41.53;37.28;;;;;;;16.84;100.00;101136.19;6253414;22;20038;-66
2023/09/17 07:52:05;;;;;;;42.25;37.85;;;;;;;16.85;100.00;101135.28;6227625;22;20349;-67
2023/09/17 07:54:36;;;;;;;42.75;38.33;;;;;;;16.89;100.00;101140.47;6253166;22;20072;-67
2023/09/17 07:57:04;;;;;;;42.97;38.70;;;;;;;16.89;100.00;101140.47;6253979;22;20011;-67
2023/09/17 07:59:30;;;;;;;43.00;38.75;;;;;;;16.90;100.00;101147.50;6253393;22;20007;-67
2023/09/17 08:01:56;;;;;;;45.15;40.75;;;;;;;16.91;100.00;101141.28;6278731;22;20329;-67
2023/09/17 08:04:22;;;;;;;45.40;40.72;;;;;;;16.90;100.00;101150.13;6226261;22;20022;-67
2023/09/17 08:06:49;;;;;;;44.70;40.20;;;;;;;16.99;100.00;101156.06;6252663;22;20414;-68
2023/09/17 08:09:15;;;;;;;43.88;39.22;;;;;;;17.00;100.00;101157.78;6188978;23;20035;-69
2023/09/17 08:11:40;;;;;;;43.80;39.42;;;;;;;17.03;100.00;101160.34;6188693;23;20082;-69
2023/09/17 08:14:06;;;;;;;42.35;38.20;;;;;;;16.98;100.00;101152.53;6202180;23;20016;-68
2023/09/17 08:16:31;;;;;;;42.72;38.72;;;;;;;16.97;100.00;101162.25;6217090;22;21829;-68
2023/09/17 08:18:57;;;;;;;43.53;39.10;;;;;;;16.97;100.00;101164.91;6204233;23;20024;-68
2023/09/17 08:21:23;;;;;;;44.05;39.78;;;;;;;16.95;100.00;101166.75;6198422;22;20019;-67
2023/09/17 08:23:49;;;;;;;45.67;41.22;;;;;;;16.97;100.00;101161.41;6188215;22;20064;-68
2023/09/17 08:26:17;;;;;;;46.60;41.88;;;;;;;17.04;100.00;101159.38;6210137;22;20430;-67
2023/09/17 08:28:43;;;;;;;46.92;42.28;;;;;;;17.02;100.00;101158.59;6197479;22;20022;-68
2023/09/17 08:31:11;;;;;;;47.05;42.38;;;;;;;17.07;100.00;101164.63;6191769;22;20020;-68
2023/09/17 08:33:37;;;;;;;47.67;43.08;;;;;;;17.07;100.00;101164.63;6218900;22;20096;-68
2023/09/17 08:36:02;;;;;;;46.55;42.15;;;;;;;17.09;100.00;101162.75;6181937;23;20450;-68
2023/09/17 08:41:06;;;;;;;46.75;42.03;;;;;;;17.12;100.00;101173.25;6242624;22;20020;-68
2023/09/17 08:43:33;;;;;;;45.17;40.90;;;;;;;17.11;100.00;101169.75;6221300;22;20043;-67
2023/09/17 08:46:03;;;;;;;47.67;43.00;;;;;;;17.23;100.00;101170.25;6226031;22;20074;-68
2023/09/17 08:48:29;;;;;;;47.47;42.92;;;;;;;17.28;100.00;101157.69;6215295;22;20019;-68
2023/09/17 08:50:57;;;;;;;47.00;42.28;;;;;;;17.34;100.00;101162.81;6189596;22;20008;-67
2023/09/17 08:53:28;;;;;;;47.60;42.65;;;;;;;17.44;100.00;101168.63;6240979;23;20012;-67
2023/09/17 08:58:31;;;;;;;46.40;41.72;;;;;;;17.47;100.00;101174.69;6247859;22;20020;-67
2023/09/17 09:01:03;;;;;;;47.15;42.13;;;;;;;17.46;100.00;101172.09;6239890;22;20022;-67
2023/09/17 09:03:33;;;;;;;46.90;42.17;;;;;;;17.49;100.00;101182.56;6216019;23;20056;-68
2023/09/17 09:06:00;;;;;;;48.42;43.42;;;;;;;17.56;100.00;101178.78;6188935;23;20024;-69
2023/09/17 09:10:53;;;;;;;49.92;44.88;;;;;;;17.65;100.00;101183.75;6288822;22;20932;-69
2023/09/17 09:13:21;;;;;;;49.38;44.65;;;;;;;17.79;100.00;101185.06;6214739;23;20016;-68
2023/09/17 09:15:47;;;;;;;48.95;43.95;;;;;;;17.95;100.00;101194.19;6191821;23;20008;-67
2023/09/17 09:18:13;;;;;;;50.28;45.15;;;;;;;18.14;100.00;101194.34;6186322;23;20349;-67
2023/09/17 09:20:40;;;;;;;50.38;45.15;;;;;;;18.17;100.00;101196.03;6186551;23;20055;-67
2023/09/17 09:23:06;;;;;;;48.05;43.33;;;;;;;18.22;100.00;101196.75;6185740;23;20039;-68
2023/09/17 09:25:31;;;;;;;49.33;44.33;;;;;;;18.25;100.00;101193.13;6186250;23;20390;-67
2023/09/17 09:28:06;;;;;;;47.58;42.92;;;;;;;18.42;100.00;101193.31;6185501;23;20008;-67
2023/09/17 09:30:31;;;;;;;48.83;44.13;;;;;;;18.49;100.00;101186.84;6186696;23;20005;-67
2023/09/17 09:32:56;;;;;;;48.70;44.10;;;;;;;18.58;100.00;101182.09;6185129;23;20012;-68
2023/09/17 09:35:23;;;;;;;48.50;43.72;;;;;;;18.68;100.00;101180.81;6186541;23;20079;-68
2023/09/17 09:37:51;;;;;;;52.08;46.90;;;;;;;18.74;100.00;101177.03;6186417;23;20015;-69
2023/09/17 09:40:17;;;;;;;50.78;45.70;;;;;;;18.98;100.00;101173.41;6186707;23;20044;-68
2023/09/17 09:42:43;;;;;;;48.97;44.42;;;;;;;18.89;100.00;101179.06;6186028;23;20512;-68
2023/09/17 09:45:17;;;;;;;49.78;44.88;;;;;;;18.93;100.00;101174.53;6210224;23;20017;-68
2023/09/17 09:47:50;;;;;;;52.00;47.15;;;;;;;18.92;100.00;101178.97;6182225;23;20015;-68
2023/09/17 09:50:23;;;;;;;50.40;45.55;;;;;;;18.98;100.00;101173.41;6182396;23;20422;-68
2023/09/17 09:52:49;;;;;;;49.55;44.97;;;;;;;19.00;100.00;101168.88;6185404;23;20315;-68
2023/09/17 09:55:15;;;;;;;48.80;44.10;;;;;;;19.09;100.00;101164.13;6186408;23;20008;-68
2023/09/17 09:57:41;;;;;;;50.92;45.85;;;;;;;19.14;100.00;101170.13;6185478;23;20013;-68
2023/09/17 10:00:14;;;;;;;46.78;42.38;;;;;;;19.18;100.00;101163.75;6186262;23;20008;-68
2023/09/17 10:02:40;;;;;;;47.25;42.75;;;;;;;19.20;100.00;101175.16;6187020;23;20088;-68
2023/09/17 10:05:18;;;;;;;47.17;42.63;;;;;;;19.15;100.00;101174.47;6186386;23;20050;-68
2023/09/17 10:07:47;;;;;;;48.30;43.60;;;;;;;19.11;100.00;101167.59;6184894;23;20035;-68
2023/09/17 10:10:14;;;;;;;49.10;44.33;;;;;;;19.08;100.00;101160.59;6161036;23;20012;-68
2023/09/17 10:12:39;;;;;;;46.35;41.85;;;;;;;19.15;100.00;101161.19;6162017;23;20043;-69
2023/09/17 10:15:06;;;;;;;45.05;40.78;;;;;;;19.08;100.00;101167.69;6160948;23;20024;-68
2023/09/17 10:17:36;;;;;;;44.05;39.45;;;;;;;19.06;100.00;101169.56;6186240;23;20020;-68
2023/09/17 10:20:06;;;;;;;42.05;37.95;;;;;;;18.99;100.00;101166.28;6187200;23;20346;-67
2023/09/17 10:22:34;;;;;;;41.53;37.33;;;;;;;18.98;100.00;101173.41;6188907;23;20011;-68
2023/09/17 10:25:04;;;;;;;41.88;36.50;;;;;;;19.00;100.00;101171.53;6187083;23;20075;-69
2023/09/17 10:27:31;;;;;;;43.42;36.17;;;;;;;18.97;100.00;101166.34;6187995;23;20004;-68
2023/09/17 10:29:57;;;;;;;42.70;37.75;;;;;;;18.98;100.00;101168.09;6187053;23;20008;-69
2023/09/17 10:32:23;;;;;;;42.30;36.65;;;;;;;18.94;100.00;101158.53;6187386;23;20004;-69
2023/09/17 10:34:52;;;;;;;41.95;37.55;;;;;;;19.08;100.00;101163.25;6163410;23;20011;-69
2023/09/17 10:37:20;;;;;;;43.58;38.28;;;;;;;19.42;100.00;101158.28;6212874;23;20013;-68
2023/09/17 10:39:46;;;;;;;43.88;38.35;;;;;;;19.72;100.00;101153.41;6212949;23;20000;-69
2023/09/17 10:42:13;;;;;;;42.03;37.50;;;;;;;19.70;100.00;101161.44;6211812;23;20005;-68
2023/09/17 10:44:42;;;;;;;41.40;36.45;;;;;;;19.65;100.00;101158.16;6163626;23;20019;-69
2023/09/17 10:47:11;;;;;;;40.30;36.10;;;;;;;19.76;100.00;101170.94;6163407;23;20050;-69
2023/09/17 10:49:38;;;;;;;37.40;33.47;;;;;;;19.56;100.00;101161.19;6212920;23;20062;-69
2023/09/17 10:52:05;;;;;;;39.42;35.33;;;;;;;19.69;100.00;101154.38;6162659;23;20004;-68
2023/09/17 10:54:31;;;;;;;39.53;34.83;;;;;;;19.87;100.00;101165.19;6188202;23;20001;-69
2023/09/17 10:57:01;;;;;;;38.65;34.45;;;;;;;20.03;100.00;101157.34;6162142;23;20029;-69
2023/09/17 10:59:27;;;;;;;37.58;33.47;;;;;;;20.11;100.00;101159.66;6187478;23;20016;-69
2023/09/17 11:01:53;;;;;;;36.30;32.58;;;;;;;20.25;100.00;101158.06;6162324;23;20091;-69
2023/09/17 11:04:23;;;;;;;35.33;31.27;;;;;;;20.33;100.00;101159.47;6186740;23;20111;-68
2023/09/17 11:06:50;;;;;;;37.30;33.38;;;;;;;20.57;100.00;101152.13;6187850;23;20100;-69
2023/09/17 11:09:15;;;;;;;30.42;27.33;;;;;;;20.47;100.00;101156.16;6187708;23;20338;-69